sensor_id;sensor_type;location;lat;lon;timestamp;P1;durP1;ratioP1;P2;durP2;ratioP2
71360;SDS011;59166;48.908;1.870;2023-02-26T00:04:35;10.90;;;2.80;;
71360;SDS011;59166;48.908;1.870;2023-02-26T00:09:36;8.27;;;2.33;;
71360;SDS011;59166;48.908;1.870;2023-02-26T00:14:38;8.18;;;2.35;;
71360;SDS011;59166;48.908;1.870;2023-02-26T00:19:43;10.77;;;2.73;;
71360;SDS011;59166;48.908;1.870;2023-02-26T00:24:44;11.57;;;2.93;;
71360;SDS011;59166;48.908;1.870;2023-02-26T00:29:45;13.55;;;2.67;;
71360;SDS011;59166;48.908;1.870;2023-02-26T00:34:48;10.00;;;2.83;;
71360;SDS011;59166;48.908;1.870;2023-02-26T00:39:50;13.07;;;3.10;;
71360;SDS011;59166;48.908;1.870;2023-02-26T00:45:00;10.35;;;2.60;;
71360;SDS011;59166;48.908;1.870;2023-02-26T00:50:08;7.43;;;2.30;;
71360;SDS011;59166;48.908;1.870;2023-02-26T00:55:15;8.20;;;2.50;;
71360;SDS011;59166;48.908;1.870;2023-02-26T01:00:16;11.95;;;2.42;;
71360;SDS011;59166;48.908;1.870;2023-02-26T01:05:19;11.17;;;2.63;;
71360;SDS011;59166;48.908;1.870;2023-02-26T01:10:21;9.65;;;2.55;;
71360;SDS011;59166;48.908;1.870;2023-02-26T01:15:23;11.73;;;2.42;;
71360;SDS011;59166;48.908;1.870;2023-02-26T01:20:27;10.03;;;2.40;;
71360;SDS011;59166;48.908;1.870;2023-02-26T01:25:34;10.50;;;2.30;;
71360;SDS011;59166;48.908;1.870;2023-02-26T01:30:40;8.80;;;2.22;;
71360;SDS011;59166;48.908;1.870;2023-02-26T01:35:44;9.60;;;2.42;;
71360;SDS011;59166;48.908;1.870;2023-02-26T01:46:17;7.63;;;2.40;;
71360;SDS011;59166;48.908;1.870;2023-02-26T01:56:44;7.93;;;2.13;;
71360;SDS011;59166;48.908;1.870;2023-02-26T02:01:49;10.10;;;2.70;;
71360;SDS011;59166;48.908;1.870;2023-02-26T02:06:53;7.85;;;2.20;;
71360;SDS011;59166;48.908;1.870;2023-02-26T02:12:01;10.60;;;2.50;;
71360;SDS011;59166;48.908;1.870;2023-02-26T02:17:11;12.00;;;2.30;;
71360;SDS011;59166;48.908;1.870;2023-02-26T02:22:28;10.13;;;2.40;;
71360;SDS011;59166;48.908;1.870;2023-02-26T02:27:42;8.88;;;2.40;;
71360;SDS011;59166;48.908;1.870;2023-02-26T02:32:55;9.83;;;2.00;;
71360;SDS011;59166;48.908;1.870;2023-02-26T02:38:02;7.88;;;2.15;;
71360;SDS011;59166;48.908;1.870;2023-02-26T02:43:07;12.80;;;2.50;;
71360;SDS011;59166;48.908;1.870;2023-02-26T02:48:15;9.23;;;2.20;;
71360;SDS011;59166;48.908;1.870;2023-02-26T02:53:20;10.20;;;2.20;;
71360;SDS011;59166;48.908;1.870;2023-02-26T02:58:25;7.70;;;2.17;;
71360;SDS011;59166;48.908;1.870;2023-02-26T03:03:33;8.30;;;2.30;;
71360;SDS011;59166;48.908;1.870;2023-02-26T03:08:40;12.13;;;2.70;;
71360;SDS011;59166;48.908;1.870;2023-02-26T03:13:42;7.65;;;2.08;;
71360;SDS011;59166;48.908;1.870;2023-02-26T03:18:49;8.32;;;1.80;;
71360;SDS011;59166;48.908;1.870;2023-02-26T03:23:55;10.53;;;1.90;;
71360;SDS011;59166;48.908;1.870;2023-02-26T03:29:01;10.52;;;1.70;;
71360;SDS011;59166;48.908;1.870;2023-02-26T03:34:07;6.97;;;1.60;;
71360;SDS011;59166;48.908;1.870;2023-02-26T03:39:13;8.47;;;1.80;;
71360;SDS011;59166;48.908;1.870;2023-02-26T03:44:20;12.15;;;2.08;;
71360;SDS011;59166;48.908;1.870;2023-02-26T03:49:26;7.40;;;1.60;;
71360;SDS011;59166;48.908;1.870;2023-02-26T03:54:31;8.30;;;1.70;;
71360;SDS011;59166;48.908;1.870;2023-02-26T03:59:34;8.57;;;1.70;;
71360;SDS011;59166;48.908;1.870;2023-02-26T04:04:37;9.48;;;1.80;;
71360;SDS011;59166;48.908;1.870;2023-02-26T04:09:41;4.67;;;1.30;;
71360;SDS011;59166;48.908;1.870;2023-02-26T04:14:42;9.48;;;1.98;;
71360;SDS011;59166;48.908;1.870;2023-02-26T04:19:44;5.03;;;1.53;;
71360;SDS011;59166;48.908;1.870;2023-02-26T04:24:44;7.03;;;1.73;;
71360;SDS011;59166;48.908;1.870;2023-02-26T04:29:45;8.90;;;1.60;;
71360;SDS011;59166;48.908;1.870;2023-02-26T04:34:47;7.88;;;1.50;;
71360;SDS011;59166;48.908;1.870;2023-02-26T04:39:48;8.57;;;1.50;;
71360;SDS011;59166;48.908;1.870;2023-02-26T04:44:48;3.92;;;1.10;;
71360;SDS011;59166;48.908;1.870;2023-02-26T04:49:50;8.67;;;1.90;;
71360;SDS011;59166;48.908;1.870;2023-02-26T04:54:51;6.68;;;1.50;;
71360;SDS011;59166;48.908;1.870;2023-02-26T04:59:52;8.67;;;1.80;;
71360;SDS011;59166;48.908;1.870;2023-02-26T05:04:54;7.93;;;1.70;;
71360;SDS011;59166;48.908;1.870;2023-02-26T05:09:54;7.07;;;1.38;;
71360;SDS011;59166;48.908;1.870;2023-02-26T05:14:55;8.33;;;2.00;;
71360;SDS011;59166;48.908;1.870;2023-02-26T05:19:57;11.10;;;1.90;;
71360;SDS011;59166;48.908;1.870;2023-02-26T05:24:58;8.80;;;2.27;;
71360;SDS011;59166;48.908;1.870;2023-02-26T05:29:58;10.73;;;2.03;;
71360;SDS011;59166;48.908;1.870;2023-02-26T05:35:00;8.75;;;2.13;;
71360;SDS011;59166;48.908;1.870;2023-02-26T05:40:01;6.67;;;2.00;;
71360;SDS011;59166;48.908;1.870;2023-02-26T05:45:02;10.87;;;2.03;;
71360;SDS011;59166;48.908;1.870;2023-02-26T05:50:05;6.93;;;1.70;;
71360;SDS011;59166;48.908;1.870;2023-02-26T05:55:07;10.67;;;2.20;;
71360;SDS011;59166;48.908;1.870;2023-02-26T06:00:09;9.55;;;2.42;;
71360;SDS011;59166;48.908;1.870;2023-02-26T06:05:12;9.82;;;1.95;;
71360;SDS011;59166;48.908;1.870;2023-02-26T06:10:13;7.20;;;1.83;;
71360;SDS011;59166;48.908;1.870;2023-02-26T06:15:13;8.83;;;2.10;;
71360;SDS011;59166;48.908;1.870;2023-02-26T06:20:15;9.60;;;1.97;;
71360;SDS011;59166;48.908;1.870;2023-02-26T06:25:16;7.45;;;1.80;;
71360;SDS011;59166;48.908;1.870;2023-02-26T06:30:17;9.30;;;2.40;;
71360;SDS011;59166;48.908;1.870;2023-02-26T06:35:19;12.52;;;2.45;;
71360;SDS011;59166;48.908;1.870;2023-02-26T06:40:20;7.97;;;2.10;;
71360;SDS011;59166;48.908;1.870;2023-02-26T06:45:21;13.85;;;2.20;;
71360;SDS011;59166;48.908;1.870;2023-02-26T06:50:23;10.43;;;2.60;;
71360;SDS011;59166;48.908;1.870;2023-02-26T06:55:24;11.13;;;2.50;;
71360;SDS011;59166;48.908;1.870;2023-02-26T07:00:25;10.57;;;2.30;;
71360;SDS011;59166;48.908;1.870;2023-02-26T07:05:27;8.93;;;2.50;;
71360;SDS011;59166;48.908;1.870;2023-02-26T07:10:28;8.30;;;2.43;;
71360;SDS011;59166;48.908;1.870;2023-02-26T07:15:28;10.07;;;2.53;;
71360;SDS011;59166;48.908;1.870;2023-02-26T07:20:31;9.60;;;2.60;;
71360;SDS011;59166;48.908;1.870;2023-02-26T07:25:31;9.03;;;2.37;;
71360;SDS011;59166;48.908;1.870;2023-02-26T07:30:32;7.35;;;1.98;;
71360;SDS011;59166;48.908;1.870;2023-02-26T07:35:35;10.37;;;3.13;;
71360;SDS011;59166;48.908;1.870;2023-02-26T07:40:35;12.25;;;2.72;;
71360;SDS011;59166;48.908;1.870;2023-02-26T07:45:36;5.00;;;1.20;;
71360;SDS011;59166;48.908;1.870;2023-02-26T07:50:38;9.27;;;2.60;;
71360;SDS011;59166;48.908;1.870;2023-02-26T07:55:39;11.23;;;2.87;;
71360;SDS011;59166;48.908;1.870;2023-02-26T08:00:39;10.05;;;2.90;;
71360;SDS011;59166;48.908;1.870;2023-02-26T08:05:41;14.03;;;2.57;;
71360;SDS011;59166;48.908;1.870;2023-02-26T08:10:42;11.65;;;2.95;;
71360;SDS011;59166;48.908;1.870;2023-02-26T08:15:43;11.27;;;2.23;;
71360;SDS011;59166;48.908;1.870;2023-02-26T08:20:45;10.63;;;2.50;;
71360;SDS011;59166;48.908;1.870;2023-02-26T08:25:45;7.95;;;2.70;;
71360;SDS011;59166;48.908;1.870;2023-02-26T08:30:46;9.83;;;2.73;;
71360;SDS011;59166;48.908;1.870;2023-02-26T08:35:48;7.82;;;2.33;;
71360;SDS011;59166;48.908;1.870;2023-02-26T08:40:49;11.00;;;2.60;;
71360;SDS011;59166;48.908;1.870;2023-02-26T08:45:51;9.70;;;2.40;;
71360;SDS011;59166;48.908;1.870;2023-02-26T08:50:53;8.00;;;2.30;;
71360;SDS011;59166;48.908;1.870;2023-02-26T08:55:54;7.85;;;2.50;;
71360;SDS011;59166;48.908;1.870;2023-02-26T09:00:55;9.23;;;2.00;;
71360;SDS011;59166;48.908;1.870;2023-02-26T09:05:57;6.82;;;1.77;;
71360;SDS011;59166;48.908;1.870;2023-02-26T09:10:58;6.87;;;1.40;;
71360;SDS011;59166;48.908;1.870;2023-02-26T09:15:59;6.05;;;1.30;;
71360;SDS011;59166;48.908;1.870;2023-02-26T09:21:01;7.47;;;1.77;;
71360;SDS011;59166;48.908;1.870;2023-02-26T09:26:01;6.30;;;1.20;;
71360;SDS011;59166;48.908;1.870;2023-02-26T09:31:02;3.97;;;1.20;;
71360;SDS011;59166;48.908;1.870;2023-02-26T09:36:05;3.33;;;1.13;;
71360;SDS011;59166;48.908;1.870;2023-02-26T09:41:07;6.70;;;1.30;;
71360;SDS011;59166;48.908;1.870;2023-02-26T09:46:18;7.17;;;1.50;;
71360;SDS011;59166;48.908;1.870;2023-02-26T09:51:26;4.67;;;1.30;;
71360;SDS011;59166;48.908;1.870;2023-02-26T09:56:28;3.58;;;1.15;;
71360;SDS011;59166;48.908;1.870;2023-02-26T10:01:34;5.97;;;1.30;;
71360;SDS011;59166;48.908;1.870;2023-02-26T10:06:47;4.20;;;1.27;;
71360;SDS011;59166;48.908;1.870;2023-02-26T10:12:02;5.75;;;1.50;;
71360;SDS011;59166;48.908;1.870;2023-02-26T10:17:15;4.07;;;1.05;;
71360;SDS011;59166;48.908;1.870;2023-02-26T10:22:23;7.37;;;1.43;;
71360;SDS011;59166;48.908;1.870;2023-02-26T10:27:33;6.68;;;1.48;;
71360;SDS011;59166;48.908;1.870;2023-02-26T10:32:42;7.10;;;1.45;;
71360;SDS011;59166;48.908;1.870;2023-02-26T10:37:53;5.03;;;1.20;;
71360;SDS011;59166;48.908;1.870;2023-02-26T10:42:58;4.73;;;1.00;;
71360;SDS011;59166;48.908;1.870;2023-02-26T10:48:03;3.17;;;1.00;;
71360;SDS011;59166;48.908;1.870;2023-02-26T10:53:12;3.92;;;1.20;;
71360;SDS011;59166;48.908;1.870;2023-02-26T10:58:13;6.07;;;1.17;;
71360;SDS011;59166;48.908;1.870;2023-02-26T11:03:16;12.35;;;1.40;;
71360;SDS011;59166;48.908;1.870;2023-02-26T11:08:22;3.70;;;1.10;;
71360;SDS011;59166;48.908;1.870;2023-02-26T11:13:26;4.10;;;1.20;;
71360;SDS011;59166;48.908;1.870;2023-02-26T11:18:29;3.22;;;1.08;;
71360;SDS011;59166;48.908;1.870;2023-02-26T11:23:33;5.18;;;1.35;;
71360;SDS011;59166;48.908;1.870;2023-02-26T11:28:35;5.30;;;1.37;;
71360;SDS011;59166;48.908;1.870;2023-02-26T11:33:43;4.50;;;1.13;;
71360;SDS011;59166;48.908;1.870;2023-02-26T11:38:51;4.55;;;1.10;;
71360;SDS011;59166;48.908;1.870;2023-02-26T11:43:56;2.72;;;0.93;;
71360;SDS011;59166;48.908;1.870;2023-02-26T11:49:00;3.10;;;0.73;;
71360;SDS011;59166;48.908;1.870;2023-02-26T11:54:02;2.75;;;0.95;;
71360;SDS011;59166;48.908;1.870;2023-02-26T11:59:17;4.67;;;1.23;;
71360;SDS011;59166;48.908;1.870;2023-02-26T12:04:21;4.40;;;1.20;;
71360;SDS011;59166;48.908;1.870;2023-02-26T12:09:25;3.65;;;1.00;;
71360;SDS011;59166;48.908;1.870;2023-02-26T12:14:33;3.00;;;0.85;;
71360;SDS011;59166;48.908;1.870;2023-02-26T12:19:48;3.50;;;0.90;;
71360;SDS011;59166;48.908;1.870;2023-02-26T12:30:31;3.25;;;0.90;;
71360;SDS011;59166;48.908;1.870;2023-02-26T12:35:46;4.40;;;1.00;;
71360;SDS011;59166;48.908;1.870;2023-02-26T12:41:12;2.38;;;0.73;;
71360;SDS011;59166;48.908;1.870;2023-02-26T12:46:32;3.70;;;0.90;;
71360;SDS011;59166;48.908;1.870;2023-02-26T12:51:45;4.33;;;1.07;;
71360;SDS011;59166;48.908;1.870;2023-02-26T12:57:11;5.23;;;1.20;;
71360;SDS011;59166;48.908;1.870;2023-02-26T13:08:11;4.13;;;1.13;;
71360;SDS011;59166;48.908;1.870;2023-02-26T13:13:26;3.57;;;1.13;;
71360;SDS011;59166;48.908;1.870;2023-02-26T13:18:39;3.25;;;0.93;;
71360;SDS011;59166;48.908;1.870;2023-02-26T13:23:48;2.50;;;0.90;;
71360;SDS011;59166;48.908;1.870;2023-02-26T13:28:53;2.77;;;0.90;;
71360;SDS011;59166;48.908;1.870;2023-02-26T13:33:58;3.30;;;0.95;;
71360;SDS011;59166;48.908;1.870;2023-02-26T13:39:07;2.90;;;0.90;;
71360;SDS011;59166;48.908;1.870;2023-02-26T13:44:24;4.57;;;1.20;;
71360;SDS011;59166;48.908;1.870;2023-02-26T13:49:30;3.87;;;1.03;;
71360;SDS011;59166;48.908;1.870;2023-02-26T13:54:43;3.05;;;1.02;;
71360;SDS011;59166;48.908;1.870;2023-02-26T13:59:47;4.10;;;1.25;;
71360;SDS011;59166;48.908;1.870;2023-02-26T14:04:53;2.57;;;0.83;;
71360;SDS011;59166;48.908;1.870;2023-02-26T14:09:56;4.25;;;1.02;;
71360;SDS011;59166;48.908;1.870;2023-02-26T14:15:26;3.83;;;1.10;;
71360;SDS011;59166;48.908;1.870;2023-02-26T14:20:31;5.27;;;1.20;;
71360;SDS011;59166;48.908;1.870;2023-02-26T14:25:35;5.72;;;1.60;;
71360;SDS011;59166;48.908;1.870;2023-02-26T14:30:41;2.88;;;1.10;;
71360;SDS011;59166;48.908;1.870;2023-02-26T14:35:47;6.43;;;1.40;;
71360;SDS011;59166;48.908;1.870;2023-02-26T14:40:52;4.20;;;1.20;;
71360;SDS011;59166;48.908;1.870;2023-02-26T14:45:57;2.85;;;1.00;;
71360;SDS011;59166;48.908;1.870;2023-02-26T14:51:04;4.35;;;1.10;;
71360;SDS011;59166;48.908;1.870;2023-02-26T14:56:19;5.13;;;1.00;;
71360;SDS011;59166;48.908;1.870;2023-02-26T15:01:31;4.30;;;1.20;;
71360;SDS011;59166;48.908;1.870;2023-02-26T15:06:49;4.30;;;1.27;;
71360;SDS011;59166;48.908;1.870;2023-02-26T15:12:06;3.03;;;1.00;;
71360;SDS011;59166;48.908;1.870;2023-02-26T15:17:23;3.60;;;1.00;;
71360;SDS011;59166;48.908;1.870;2023-02-26T15:22:36;4.68;;;1.00;;
71360;SDS011;59166;48.908;1.870;2023-02-26T15:27:44;3.80;;;1.20;;
71360;SDS011;59166;48.908;1.870;2023-02-26T15:32:46;3.17;;;1.10;;
71360;SDS011;59166;48.908;1.870;2023-02-26T15:37:47;4.43;;;1.35;;
71360;SDS011;59166;48.908;1.870;2023-02-26T15:42:49;4.80;;;1.40;;
71360;SDS011;59166;48.908;1.870;2023-02-26T15:47:56;4.60;;;1.20;;
71360;SDS011;59166;48.908;1.870;2023-02-26T15:52:59;5.57;;;1.10;;
71360;SDS011;59166;48.908;1.870;2023-02-26T15:58:01;4.57;;;1.20;;
71360;SDS011;59166;48.908;1.870;2023-02-26T16:03:05;5.53;;;1.40;;
71360;SDS011;59166;48.908;1.870;2023-02-26T16:08:07;4.53;;;1.45;;
71360;SDS011;59166;48.908;1.870;2023-02-26T16:13:13;3.67;;;1.20;;
71360;SDS011;59166;48.908;1.870;2023-02-26T16:18:21;5.33;;;1.40;;
71360;SDS011;59166;48.908;1.870;2023-02-26T16:23:23;5.70;;;1.50;;
71360;SDS011;59166;48.908;1.870;2023-02-26T16:28:31;3.90;;;1.52;;
71360;SDS011;59166;48.908;1.870;2023-02-26T16:33:35;4.23;;;1.30;;
71360;SDS011;59166;48.908;1.870;2023-02-26T16:38:42;5.28;;;1.60;;
71360;SDS011;59166;48.908;1.870;2023-02-26T16:43:49;4.22;;;1.40;;
71360;SDS011;59166;48.908;1.870;2023-02-26T16:48:53;4.80;;;1.70;;
71360;SDS011;59166;48.908;1.870;2023-02-26T16:53:58;3.08;;;1.02;;
71360;SDS011;59166;48.908;1.870;2023-02-26T16:59:02;2.85;;;0.93;;
71360;SDS011;59166;48.908;1.870;2023-02-26T17:04:06;4.67;;;1.40;;
71360;SDS011;59166;48.908;1.870;2023-02-26T17:09:23;5.00;;;1.40;;
71360;SDS011;59166;48.908;1.870;2023-02-26T17:14:36;4.93;;;1.48;;
71360;SDS011;59166;48.908;1.870;2023-02-26T17:19:40;6.43;;;1.70;;
71360;SDS011;59166;48.908;1.870;2023-02-26T17:24:41;4.43;;;1.20;;
71360;SDS011;59166;48.908;1.870;2023-02-26T17:29:44;4.00;;;1.30;;
71360;SDS011;59166;48.908;1.870;2023-02-26T17:34:50;4.13;;;1.27;;
71360;SDS011;59166;48.908;1.870;2023-02-26T17:39:51;3.63;;;1.20;;
71360;SDS011;59166;48.908;1.870;2023-02-26T17:44:52;5.80;;;1.52;;
71360;SDS011;59166;48.908;1.870;2023-02-26T17:49:54;2.80;;;1.13;;
71360;SDS011;59166;48.908;1.870;2023-02-26T17:54:55;6.82;;;1.80;;
71360;SDS011;59166;48.908;1.870;2023-02-26T17:59:55;6.20;;;1.80;;
71360;SDS011;59166;48.908;1.870;2023-02-26T18:04:57;6.80;;;1.90;;
71360;SDS011;59166;48.908;1.870;2023-02-26T18:09:58;6.30;;;1.70;;
71360;SDS011;59166;48.908;1.870;2023-02-26T18:14:59;5.72;;;1.80;;
71360;SDS011;59166;48.908;1.870;2023-02-26T18:20:01;6.97;;;2.10;;
71360;SDS011;59166;48.908;1.870;2023-02-26T18:25:02;6.90;;;1.90;;
71360;SDS011;59166;48.908;1.870;2023-02-26T18:30:03;4.97;;;1.80;;
71360;SDS011;59166;48.908;1.870;2023-02-26T18:35:06;7.57;;;2.10;;
71360;SDS011;59166;48.908;1.870;2023-02-26T18:40:09;5.47;;;1.77;;
71360;SDS011;59166;48.908;1.870;2023-02-26T18:45:13;5.43;;;1.80;;
71360;SDS011;59166;48.908;1.870;2023-02-26T18:50:16;5.80;;;1.80;;
71360;SDS011;59166;48.908;1.870;2023-02-26T18:55:17;7.15;;;2.22;;
71360;SDS011;59166;48.908;1.870;2023-02-26T19:00:18;8.00;;;1.97;;
71360;SDS011;59166;48.908;1.870;2023-02-26T19:05:21;8.50;;;1.92;;
71360;SDS011;59166;48.908;1.870;2023-02-26T19:10:22;6.30;;;1.85;;
71360;SDS011;59166;48.908;1.870;2023-02-26T19:15:22;5.03;;;1.60;;
71360;SDS011;59166;48.908;1.870;2023-02-26T19:20:25;6.00;;;2.00;;
71360;SDS011;59166;48.908;1.870;2023-02-26T19:25:25;7.00;;;1.90;;
71360;SDS011;59166;48.908;1.870;2023-02-26T19:30:26;6.10;;;1.80;;
71360;SDS011;59166;48.908;1.870;2023-02-26T19:35:28;5.17;;;1.53;;
71360;SDS011;59166;48.908;1.870;2023-02-26T19:40:29;9.55;;;1.60;;
71360;SDS011;59166;48.908;1.870;2023-02-26T19:45:30;5.77;;;1.70;;
71360;SDS011;59166;48.908;1.870;2023-02-26T19:50:32;7.03;;;1.90;;
71360;SDS011;59166;48.908;1.870;2023-02-26T19:55:32;6.33;;;1.80;;
71360;SDS011;59166;48.908;1.870;2023-02-26T20:00:33;7.22;;;2.08;;
71360;SDS011;59166;48.908;1.870;2023-02-26T20:05:35;6.73;;;2.40;;
71360;SDS011;59166;48.908;1.870;2023-02-26T20:10:36;11.82;;;3.60;;
71360;SDS011;59166;48.908;1.870;2023-02-26T20:15:37;5.63;;;1.80;;
71360;SDS011;59166;48.908;1.870;2023-02-26T20:20:39;10.73;;;2.72;;
71360;SDS011;59166;48.908;1.870;2023-02-26T20:25:41;6.80;;;2.10;;
71360;SDS011;59166;48.908;1.870;2023-02-26T20:30:42;7.13;;;2.70;;
71360;SDS011;59166;48.908;1.870;2023-02-26T20:35:44;8.88;;;3.03;;
71360;SDS011;59166;48.908;1.870;2023-02-26T20:40:45;7.13;;;2.10;;
71360;SDS011;59166;48.908;1.870;2023-02-26T20:45:47;7.05;;;2.70;;
71360;SDS011;59166;48.908;1.870;2023-02-26T20:50:49;6.90;;;2.13;;
71360;SDS011;59166;48.908;1.870;2023-02-26T20:55:50;6.03;;;1.90;;
71360;SDS011;59166;48.908;1.870;2023-02-26T21:00:55;7.65;;;2.13;;
71360;SDS011;59166;48.908;1.870;2023-02-26T21:05:57;6.78;;;1.92;;
71360;SDS011;59166;48.908;1.870;2023-02-26T21:10:58;8.10;;;1.90;;
71360;SDS011;59166;48.908;1.870;2023-02-26T21:15:59;7.82;;;2.10;;
71360;SDS011;59166;48.908;1.870;2023-02-26T21:21:02;5.73;;;1.70;;
71360;SDS011;59166;48.908;1.870;2023-02-26T21:26:04;6.65;;;1.80;;
71360;SDS011;59166;48.908;1.870;2023-02-26T21:31:04;5.83;;;1.93;;
71360;SDS011;59166;48.908;1.870;2023-02-26T21:36:07;6.30;;;1.90;;
71360;SDS011;59166;48.908;1.870;2023-02-26T21:41:08;5.32;;;1.85;;
71360;SDS011;59166;48.908;1.870;2023-02-26T21:46:08;9.00;;;2.30;;
71360;SDS011;59166;48.908;1.870;2023-02-26T21:51:10;6.55;;;2.00;;
71360;SDS011;59166;48.908;1.870;2023-02-26T21:56:11;4.90;;;1.93;;
71360;SDS011;59166;48.908;1.870;2023-02-26T22:01:12;5.37;;;1.90;;
71360;SDS011;59166;48.908;1.870;2023-02-26T22:06:14;7.28;;;2.20;;
71360;SDS011;59166;48.908;1.870;2023-02-26T22:11:15;8.13;;;2.30;;
71360;SDS011;59166;48.908;1.870;2023-02-26T22:16:15;7.43;;;2.10;;
71360;SDS011;59166;48.908;1.870;2023-02-26T22:21:18;7.43;;;1.70;;
71360;SDS011;59166;48.908;1.870;2023-02-26T22:26:18;7.35;;;2.28;;
71360;SDS011;59166;48.908;1.870;2023-02-26T22:31:19;7.60;;;2.20;;
71360;SDS011;59166;48.908;1.870;2023-02-26T22:36:21;7.60;;;2.43;;
71360;SDS011;59166;48.908;1.870;2023-02-26T22:41:22;4.88;;;1.60;;
71360;SDS011;59166;48.908;1.870;2023-02-26T22:46:22;8.17;;;2.50;;
71360;SDS011;59166;48.908;1.870;2023-02-26T22:51:25;9.13;;;2.90;;
71360;SDS011;59166;48.908;1.870;2023-02-26T22:56:25;9.67;;;2.70;;
71360;SDS011;59166;48.908;1.870;2023-02-26T23:01:26;9.77;;;2.90;;
71360;SDS011;59166;48.908;1.870;2023-02-26T23:06:28;8.73;;;2.70;;
71360;SDS011;59166;48.908;1.870;2023-02-26T23:11:29;9.57;;;2.88;;
71360;SDS011;59166;48.908;1.870;2023-02-26T23:16:30;7.33;;;2.53;;
71360;SDS011;59166;48.908;1.870;2023-02-26T23:21:32;9.02;;;2.70;;
71360;SDS011;59166;48.908;1.870;2023-02-26T23:26:32;8.63;;;2.47;;
71360;SDS011;59166;48.908;1.870;2023-02-26T23:31:33;8.05;;;2.55;;
71360;SDS011;59166;48.908;1.870;2023-02-26T23:36:35;7.60;;;2.23;;
71360;SDS011;59166;48.908;1.870;2023-02-26T23:41:36;7.97;;;2.42;;
71360;SDS011;59166;48.908;1.870;2023-02-26T23:46:37;9.47;;;2.40;;
71360;SDS011;59166;48.908;1.870;2023-02-26T23:51:39;6.87;;;2.20;;
71360;SDS011;59166;48.908;1.870;2023-02-26T23:56:39;9.98;;;2.90;;
